Terminal Aerodrome Forecast
Issued by NWS Mt. Holly, NJ

Home | Current Version | Previous Version | Text Only | Print | Product List | Glossary On
Versions: 1 2 3 4 5 6 7 8 9 10 11 12 13 14 15 16 17 18 19 20 21
000
FTUS41 KPHI 020500
TAFTTN
TAF
KTTN 020525Z 0206/0306 24005KT P6SM SCT070
      TEMPO 0209/0212 4SM BR SCT003
     FM021400 27007KT P6SM SCT060
     FM021800 25012KT P6SM SCT050 BKN150
     FM022200 26008KT P6SM VCSH BKN050
     FM030500 29006KT P6SM FEW050 SCT250=

USA.gov is the U.S. government's official web portal to all federal, state and local government web resources and services.